Time;durP1;ratioP1;P1;durP2;ratioP2;P2;SDS_P1;SDS_P2;PMS_P1;PMS_P2;Temp;Humidity;BMP_temperature;BMP_pressure;BME280_temperature;BME280_humidity;BME280_pressure;Samples;Min_cycle;Max_cycle;Signal;HPM_P1;HPM_P2
2021/01/04 00:01:27;;;;;;;35.50;22.67;;;;;;;;;;640693;217;918987;-67
2021/01/04 00:03:54;;;;;;;70.20;31.50;;;;;;;;;;644012;217;918840;-67
2021/01/04 00:06:36;;;;;;;39.37;23.70;;;;;;;;;;639692;216;919283;-67
2021/01/04 00:09:02;;;;;;;39.30;24.23;;;;;;;;;;643117;214;918491;-68
2021/01/04 00:11:46;;;;;;;48.27;28.70;;;;;;;;;;639859;216;923008;-67
2021/01/04 00:14:30;;;;;;;56.40;30.37;;;;;;;;;;637028;217;919349;-67
2021/01/04 00:17:05;;;;;;;45.57;28.17;;;;;;;;;;641582;217;918592;-67
2021/01/04 00:19:35;;;;;;;58.03;31.37;;;;;;;;;;637113;216;919207;-67
2021/01/04 00:22:01;;;;;;;57.83;32.67;;;;;;;;;;644647;217;918746;-67
2021/01/04 00:24:34;;;;;;;51.00;31.70;;;;;;;;;;640454;217;918382;-67
2021/01/04 00:27:03;;;;;;;65.70;37.93;;;;;;;;;;640911;216;918972;-66
2021/01/04 00:29:29;;;;;;;68.10;37.63;;;;;;;;;;638360;217;918997;-67
2021/01/04 00:31:55;;;;;;;71.65;40.45;;;;;;;;;;644388;216;918352;-68
2021/01/04 00:34:22;;;;;;;69.27;37.70;;;;;;;;;;637634;216;919538;-68
2021/01/04 00:37:08;;;;;;;84.47;39.53;;;;;;;;;;639422;216;918737;-67
2021/01/04 00:39:36;;;;;;;51.93;31.80;;;;;;;;;;635247;217;910988;-67
2021/01/04 00:42:02;;;;;;;64.97;36.80;;;;;;;;;;638424;216;916381;-66
2021/01/04 00:44:28;;;;;;;68.90;36.27;;;;;;;;;;641876;217;915368;-66
2021/01/04 00:46:55;;;;;;;61.27;33.73;;;;;;;;;;642682;216;918607;-67
2021/01/04 00:49:21;;;;;;;54.70;32.97;;;;;;;;;;636836;218;918608;-68
2021/01/04 00:51:49;;;;;;;62.03;32.27;;;;;;;;;;642398;217;917212;-67
2021/01/04 00:54:21;;;;;;;81.23;41.80;;;;;;;;;;639603;217;918464;-67
2021/01/04 00:56:57;;;;;;;78.80;44.30;;;;;;;;;;639610;217;919121;-67
2021/01/04 00:59:34;;;;;;;90.33;42.73;;;;;;;;;;636041;217;918080;-67
2021/01/04 01:02:06;;;;;;;78.60;42.90;;;;;;;;;;640188;217;918860;-67
2021/01/04 01:04:37;;;;;;;86.40;47.10;;;;;;;;;;635640;217;918279;-67
2021/01/04 01:07:03;;;;;;;102.00;52.50;;;;;;;;;;643038;216;917827;-67
2021/01/04 01:09:30;;;;;;;86.87;46.87;;;;;;;;;;638896;216;919946;-69
2021/01/04 01:11:59;;;;;;;102.10;51.17;;;;;;;;;;637705;217;918891;-67
2021/01/04 01:14:40;;;;;;;96.07;47.17;;;;;;;;;;640295;216;915627;-67
2021/01/04 01:17:12;;;;;;;82.13;47.20;;;;;;;;;;640921;214;915776;-65
2021/01/04 01:19:44;;;;;;;76.43;46.17;;;;;;;;;;645802;216;914835;-67
2021/01/04 01:22:10;;;;;;;92.37;45.00;;;;;;;;;;640458;216;918277;-66
2021/01/04 01:24:36;;;;;;;81.57;48.27;;;;;;;;;;639243;217;918751;-67
2021/01/04 01:27:02;;;;;;;83.13;46.87;;;;;;;;;;635530;216;921300;-66
2021/01/04 01:29:29;;;;;;;96.63;48.80;;;;;;;;;;645712;216;919161;-67
2021/01/04 01:32:00;;;;;;;96.60;54.07;;;;;;;;;;636431;217;919562;-66
2021/01/04 01:34:32;;;;;;;91.20;48.07;;;;;;;;;;640246;216;918969;-68
2021/01/04 01:37:08;;;;;;;122.23;56.10;;;;;;;;;;637662;217;919388;-68
2021/01/04 01:39:54;;;;;;;124.33;58.00;;;;;;;;;;644215;217;919361;-67
2021/01/04 01:42:35;;;;;;;104.77;54.17;;;;;;;;;;644846;215;918926;-67
2021/01/04 01:45:07;;;;;;;106.57;53.03;;;;;;;;;;641044;219;918919;-65
2021/01/04 01:47:36;;;;;;;107.63;58.63;;;;;;;;;;638539;216;973560;-67
2021/01/04 01:50:05;;;;;;;121.30;58.37;;;;;;;;;;633950;217;934103;-67
2021/01/04 01:52:33;;;;;;;119.67;63.00;;;;;;;;;;633931;219;919210;-68
2021/01/04 01:55:01;;;;;;;131.43;62.67;;;;;;;;;;634468;217;1021157;-66
2021/01/04 01:57:42;;;;;;;133.40;65.07;;;;;;;;;;637260;218;917650;-67
2021/01/04 02:00:11;;;;;;;153.60;70.97;;;;;;;;;;636854;219;927565;-67
2021/01/04 02:02:38;;;;;;;145.27;67.10;;;;;;;;;;633683;217;918604;-68
2021/01/04 02:05:10;;;;;;;140.40;69.30;;;;;;;;;;635552;214;920612;-67
2021/01/04 02:07:36;;;;;;;127.27;64.47;;;;;;;;;;628923;216;2022733;-67
2021/01/04 02:10:18;;;;;;;135.07;69.10;;;;;;;;;;641474;218;919180;-67
2021/01/04 02:12:45;;;;;;;142.60;64.30;;;;;;;;;;636207;219;918542;-67
2021/01/04 02:15:12;;;;;;;141.70;69.97;;;;;;;;;;633640;217;918300;-67
2021/01/04 02:17:43;;;;;;;148.57;74.25;;;;;;;;;;633058;214;918986;-67
2021/01/04 02:20:25;;;;;;;149.87;77.90;;;;;;;;;;642257;216;917674;-67
2021/01/04 02:23:06;;;;;;;142.87;71.23;;;;;;;;;;641803;218;918902;-67
2021/01/04 02:25:31;;;;;;;144.77;71.87;;;;;;;;;;641338;219;919699;-67
2021/01/04 02:27:57;;;;;;;152.57;75.47;;;;;;;;;;634078;216;1239730;-67
2021/01/04 02:30:23;;;;;;;177.63;86.30;;;;;;;;;;636667;218;918364;-67
2021/01/04 02:32:49;;;;;;;125.40;64.45;;;;;;;;;;637973;219;918566;-67
2021/01/04 02:35:15;;;;;;;127.30;68.03;;;;;;;;;;641358;218;919923;-67
2021/01/04 02:37:41;;;;;;;156.73;68.67;;;;;;;;;;633954;217;918351;-67
2021/01/04 02:40:09;;;;;;;152.43;75.90;;;;;;;;;;634118;216;919024;-67
2021/01/04 02:42:34;;;;;;;157.98;76.28;;;;;;;;;;641176;216;918410;-67
2021/01/04 02:45:00;;;;;;;163.87;83.83;;;;;;;;;;634617;216;919325;-70
2021/01/04 02:47:31;;;;;;;160.90;79.17;;;;;;;;;;637941;216;918544;-67
2021/01/04 02:50:03;;;;;;;169.40;79.10;;;;;;;;;;635573;217;917354;-66
2021/01/04 02:52:45;;;;;;;168.63;83.13;;;;;;;;;;641956;215;919840;-69
2021/01/04 02:55:11;;;;;;;169.00;82.47;;;;;;;;;;638236;216;919464;-68
2021/01/04 02:57:37;;;;;;;149.90;76.17;;;;;;;;;;633630;217;919574;-68
2021/01/04 03:00:06;;;;;;;153.70;74.60;;;;;;;;;;632592;218;918653;-68
2021/01/04 03:02:32;;;;;;;162.73;77.80;;;;;;;;;;640542;219;918570;-67
2021/01/04 03:04:58;;;;;;;166.20;79.43;;;;;;;;;;635578;217;918741;-68
2021/01/04 03:07:23;;;;;;;137.73;70.70;;;;;;;;;;637583;216;960513;-68
2021/01/04 03:09:49;;;;;;;139.70;74.70;;;;;;;;;;634603;217;916143;-68
2021/01/04 03:12:15;;;;;;;153.97;74.93;;;;;;;;;;638876;218;919004;-67
2021/01/04 03:14:53;;;;;;;131.73;71.60;;;;;;;;;;633732;216;917586;-68
2021/01/04 03:17:36;;;;;;;151.77;73.17;;;;;;;;;;635446;217;921463;-68
2021/01/04 03:20:02;;;;;;;144.67;73.67;;;;;;;;;;635272;216;916255;-67
2021/01/04 03:22:28;;;;;;;166.93;78.87;;;;;;;;;;636325;217;916899;-67
2021/01/04 03:24:54;;;;;;;163.60;85.73;;;;;;;;;;639391;219;923115;-67
2021/01/04 03:27:20;;;;;;;176.27;87.50;;;;;;;;;;637590;217;915784;-68
2021/01/04 03:29:45;;;;;;;164.43;84.07;;;;;;;;;;636230;215;913104;-67
2021/01/04 03:32:11;;;;;;;172.00;86.87;;;;;;;;;;640883;217;914981;-68
2021/01/04 03:34:37;;;;;;;169.87;90.17;;;;;;;;;;638233;216;916673;-68
2021/01/04 03:37:03;;;;;;;167.57;86.07;;;;;;;;;;627064;216;2190404;-68
2021/01/04 03:39:29;;;;;;;168.13;88.83;;;;;;;;;;641473;219;918509;-68
2021/01/04 03:41:56;;;;;;;177.07;88.17;;;;;;;;;;634894;219;916991;-68
2021/01/04 03:44:21;;;;;;;185.33;91.77;;;;;;;;;;636781;216;918447;-68
2021/01/04 03:46:47;;;;;;;176.02;90.05;;;;;;;;;;634391;218;918942;-67
2021/01/04 03:49:13;;;;;;;172.67;91.87;;;;;;;;;;641227;218;919084;-69
2021/01/04 03:51:39;;;;;;;182.87;98.27;;;;;;;;;;634829;218;918705;-68
2021/01/04 03:54:05;;;;;;;167.70;83.17;;;;;;;;;;635981;218;918086;-67
2021/01/04 03:56:31;;;;;;;153.50;86.97;;;;;;;;;;639225;216;917686;-68
2021/01/04 03:58:57;;;;;;;179.53;88.77;;;;;;;;;;640896;216;919443;-69
2021/01/04 04:01:22;;;;;;;182.60;90.27;;;;;;;;;;635318;218;924641;-69
2021/01/04 04:03:48;;;;;;;188.35;96.55;;;;;;;;;;640461;217;921701;-68
2021/01/04 04:06:14;;;;;;;180.43;90.20;;;;;;;;;;636431;218;919015;-68
2021/01/04 04:08:40;;;;;;;185.03;93.03;;;;;;;;;;632945;218;919259;-67
2021/01/04 04:11:06;;;;;;;195.73;99.83;;;;;;;;;;640315;218;917587;-68
2021/01/04 04:13:32;;;;;;;180.30;95.27;;;;;;;;;;635119;216;918851;-68
2021/01/04 04:15:58;;;;;;;209.12;101.03;;;;;;;;;;635154;219;918090;-68
2021/01/04 04:18:23;;;;;;;202.40;99.83;;;;;;;;;;634698;216;932637;-68
2021/01/04 04:20:49;;;;;;;199.57;106.47;;;;;;;;;;641454;218;919536;-69
2021/01/04 04:23:15;;;;;;;206.10;105.60;;;;;;;;;;633356;216;1001627;-68
2021/01/04 04:25:41;;;;;;;188.93;94.60;;;;;;;;;;639324;217;916249;-68
2021/01/04 04:28:07;;;;;;;195.17;98.07;;;;;;;;;;643084;217;917705;-68
2021/01/04 04:30:33;;;;;;;222.73;107.70;;;;;;;;;;640124;217;919008;-67
2021/01/04 04:32:59;;;;;;;196.50;95.00;;;;;;;;;;637810;217;918859;-67
2021/01/04 04:35:24;;;;;;;204.73;105.53;;;;;;;;;;644536;217;919078;-69
2021/01/04 04:37:50;;;;;;;224.15;110.37;;;;;;;;;;636376;217;917861;-69
2021/01/04 04:40:17;;;;;;;198.20;92.90;;;;;;;;;;638859;217;921511;-69
2021/01/04 04:42:43;;;;;;;180.07;94.30;;;;;;;;;;639085;217;1012179;-68
2021/01/04 04:45:11;;;;;;;185.83;93.17;;;;;;;;;;644018;215;918894;-69
2021/01/04 04:47:41;;;;;;;186.57;92.70;;;;;;;;;;640057;217;919183;-69
2021/01/04 04:50:27;;;;;;;188.37;94.80;;;;;;;;;;638868;216;918560;-68
2021/01/04 04:53:08;;;;;;;177.57;87.83;;;;;;;;;;647346;214;919180;-68
2021/01/04 04:55:52;;;;;;;167.82;86.37;;;;;;;;;;642179;215;918631;-69
2021/01/04 04:58:18;;;;;;;192.60;89.40;;;;;;;;;;638077;217;919246;-68
2021/01/04 05:00:45;;;;;;;202.07;98.60;;;;;;;;;;638663;213;919834;-69
2021/01/04 05:03:12;;;;;;;210.03;106.43;;;;;;;;;;641258;218;918883;-69
2021/01/04 05:05:41;;;;;;;226.83;103.80;;;;;;;;;;636909;216;1197526;-70
2021/01/04 05:08:20;;;;;;;205.60;102.70;;;;;;;;;;639092;217;917516;-69
2021/01/04 05:10:46;;;;;;;239.77;114.83;;;;;;;;;;637879;217;919465;-68
2021/01/04 05:13:12;;;;;;;287.73;133.00;;;;;;;;;;644514;217;917987;-68
2021/01/04 05:15:39;;;;;;;332.85;147.77;;;;;;;;;;637055;217;919290;-68
2021/01/04 05:18:06;;;;;;;383.87;151.47;;;;;;;;;;639385;217;921588;-68
2021/01/04 05:20:38;;;;;;;457.07;190.90;;;;;;;;;;641336;217;915467;-68
2021/01/04 05:23:09;;;;;;;654.97;290.20;;;;;;;;;;642050;216;915282;-68
2021/01/04 05:25:35;;;;;;;260.53;121.80;;;;;;;;;;636727;217;918941;-69
2021/01/04 05:28:05;;;;;;;265.07;122.80;;;;;;;;;;639071;216;933637;-68
2021/01/04 05:30:31;;;;;;;234.50;112.87;;;;;;;;;;636469;216;1101569;-67
2021/01/04 05:32:57;;;;;;;317.77;166.10;;;;;;;;;;643526;217;918203;-69
2021/01/04 05:35:23;;;;;;;222.63;109.67;;;;;;;;;;636077;217;918565;-69
2021/01/04 05:37:49;;;;;;;190.73;99.53;;;;;;;;;;641344;216;918672;-68
2021/01/04 05:40:18;;;;;;;203.00;104.17;;;;;;;;;;641793;217;918233;-68
2021/01/04 05:42:45;;;;;;;197.17;98.97;;;;;;;;;;641025;217;918630;-69
2021/01/04 05:45:13;;;;;;;190.45;102.10;;;;;;;;;;638922;217;919408;-69
2021/01/04 05:47:56;;;;;;;199.37;97.90;;;;;;;;;;638077;217;917175;-69
2021/01/04 05:50:26;;;;;;;194.57;101.20;;;;;;;;;;636010;216;919577;-68
2021/01/04 05:52:52;;;;;;;220.40;105.27;;;;;;;;;;644091;215;919033;-67
2021/01/04 05:55:18;;;;;;;204.33;101.47;;;;;;;;;;640062;215;921716;-68
2021/01/04 05:57:44;;;;;;;200.40;98.17;;;;;;;;;;638612;215;918751;-69
2021/01/04 06:00:12;;;;;;;195.73;101.60;;;;;;;;;;646333;217;920283;-69
2021/01/04 06:02:37;;;;;;;207.73;101.00;;;;;;;;;;640214;216;917558;-69
2021/01/04 06:05:06;;;;;;;203.63;96.87;;;;;;;;;;641219;216;921611;-68
2021/01/04 06:07:34;;;;;;;190.52;96.07;;;;;;;;;;638357;217;919324;-68
2021/01/04 06:10:00;;;;;;;207.53;105.53;;;;;;;;;;644740;217;917988;-69
2021/01/04 06:12:27;;;;;;;224.33;107.37;;;;;;;;;;637466;216;1093018;-69
2021/01/04 06:14:55;;;;;;;219.67;110.77;;;;;;;;;;640195;217;918101;-69
2021/01/04 06:17:27;;;;;;;218.80;114.00;;;;;;;;;;641864;217;916832;-70
2021/01/04 06:19:54;;;;;;;225.47;114.20;;;;;;;;;;645873;217;916711;-69
2021/01/04 06:22:19;;;;;;;223.73;106.07;;;;;;;;;;637101;216;920889;-68
2021/01/04 06:24:44;;;;;;;223.00;106.40;;;;;;;;;;638713;216;919504;-70
2021/01/04 06:27:20;;;;;;;198.73;103.07;;;;;;;;;;642755;216;919203;-69
2021/01/04 06:29:46;;;;;;;220.47;106.33;;;;;;;;;;644041;216;919079;-69
2021/01/04 06:32:29;;;;;;;229.47;110.03;;;;;;;;;;637720;216;917995;-69
2021/01/04 06:34:55;;;;;;;214.73;105.60;;;;;;;;;;638912;215;918412;-70
2021/01/04 06:37:20;;;;;;;215.32;110.00;;;;;;;;;;633068;217;1637848;-69
2021/01/04 06:39:46;;;;;;;217.27;112.63;;;;;;;;;;643342;217;919018;-68
2021/01/04 06:42:12;;;;;;;223.73;111.07;;;;;;;;;;638987;217;919067;-69
2021/01/04 06:44:38;;;;;;;223.43;112.07;;;;;;;;;;637513;215;918549;-69
2021/01/04 06:47:04;;;;;;;232.33;115.33;;;;;;;;;;644025;217;918966;-69
2021/01/04 06:49:30;;;;;;;232.33;114.40;;;;;;;;;;638602;216;922419;-69
2021/01/04 06:52:14;;;;;;;231.80;109.43;;;;;;;;;;640445;217;918650;-69
2021/01/04 06:54:40;;;;;;;231.50;115.03;;;;;;;;;;638726;217;919774;-69
2021/01/04 06:57:09;;;;;;;218.63;108.87;;;;;;;;;;639975;217;919790;-68
2021/01/04 06:59:36;;;;;;;235.83;121.10;;;;;;;;;;638537;217;1225172;-68
2021/01/04 07:02:06;;;;;;;241.83;120.97;;;;;;;;;;639443;217;918779;-69
2021/01/04 07:04:34;;;;;;;230.27;114.80;;;;;;;;;;639180;217;912743;-68
2021/01/04 07:06:59;;;;;;;242.60;123.07;;;;;;;;;;639878;217;917629;-68
2021/01/04 07:09:45;;;;;;;231.18;117.07;;;;;;;;;;642523;217;918975;-69
2021/01/04 07:12:27;;;;;;;242.57;120.57;;;;;;;;;;645010;217;918974;-68
2021/01/04 07:14:54;;;;;;;271.47;123.87;;;;;;;;;;643141;217;918578;-69
2021/01/04 07:17:35;;;;;;;269.65;136.02;;;;;;;;;;638782;217;934031;-68
2021/01/04 07:20:03;;;;;;;311.83;154.27;;;;;;;;;;634791;216;918941;-67
2021/01/04 07:22:29;;;;;;;237.90;126.67;;;;;;;;;;639378;217;918185;-68
2021/01/04 07:24:55;;;;;;;222.43;115.93;;;;;;;;;;640542;216;923413;-68
2021/01/04 07:27:26;;;;;;;256.60;119.27;;;;;;;;;;638822;216;918651;-67
2021/01/04 07:29:53;;;;;;;278.07;139.43;;;;;;;;;;637141;216;927672;-67
2021/01/04 07:32:23;;;;;;;244.70;118.53;;;;;;;;;;639252;216;918324;-67
2021/01/04 07:34:49;;;;;;;239.80;117.83;;;;;;;;;;642870;217;917927;-70
2021/01/04 07:37:24;;;;;;;235.17;115.70;;;;;;;;;;643040;217;918956;-68
2021/01/04 07:39:50;;;;;;;233.00;113.30;;;;;;;;;;638933;216;1134606;-67
2021/01/04 07:42:26;;;;;;;245.43;115.90;;;;;;;;;;640045;217;919817;-68
2021/01/04 07:44:52;;;;;;;231.52;116.93;;;;;;;;;;641026;216;918260;-67
2021/01/04 07:47:34;;;;;;;242.93;115.90;;;;;;;;;;640548;216;918695;-68
2021/01/04 07:50:06;;;;;;;271.70;137.23;;;;;;;;;;639585;216;918622;-67
2021/01/04 07:52:38;;;;;;;259.97;120.67;;;;;;;;;;637091;216;919557;-68
2021/01/04 07:55:06;;;;;;;230.43;114.47;;;;;;;;;;636877;216;917317;-69
2021/01/04 07:57:49;;;;;;;236.80;121.47;;;;;;;;;;635092;216;918936;-67
2021/01/04 08:00:16;;;;;;;304.40;144.27;;;;;;;;;;634875;217;919897;-68
2021/01/04 08:02:48;;;;;;;250.43;123.63;;;;;;;;;;639181;217;912793;-68
2021/01/04 08:05:17;;;;;;;258.50;125.37;;;;;;;;;;638166;216;917782;-68
2021/01/04 08:07:45;;;;;;;248.62;121.72;;;;;;;;;;634595;216;981391;-70
2021/01/04 08:10:16;;;;;;;237.03;119.57;;;;;;;;;;639794;217;916318;-67
2021/01/04 08:12:43;;;;;;;308.17;151.80;;;;;;;;;;643089;213;908502;-68
2021/01/04 08:15:13;;;;;;;283.47;140.70;;;;;;;;;;642018;216;915716;-68
2021/01/04 08:17:40;;;;;;;250.77;124.43;;;;;;;;;;641714;215;918826;-69
2021/01/04 08:20:06;;;;;;;259.07;125.57;;;;;;;;;;637645;217;919389;-67
2021/01/04 08:22:32;;;;;;;253.00;122.43;;;;;;;;;;643494;217;919167;-68
2021/01/04 08:24:59;;;;;;;267.00;126.27;;;;;;;;;;641584;217;918727;-68
2021/01/04 08:27:31;;;;;;;263.40;125.87;;;;;;;;;;634658;216;918524;-67
2021/01/04 08:29:57;;;;;;;264.87;127.13;;;;;;;;;;641235;218;918013;-67
2021/01/04 08:32:23;;;;;;;256.33;125.30;;;;;;;;;;637562;219;919585;-67
2021/01/04 08:34:49;;;;;;;263.10;126.50;;;;;;;;;;636398;218;919193;-66
2021/01/04 08:37:15;;;;;;;261.73;124.93;;;;;;;;;;633797;216;918072;-68
2021/01/04 08:39:41;;;;;;;256.10;123.03;;;;;;;;;;639536;219;919528;-67
2021/01/04 08:42:12;;;;;;;276.23;125.93;;;;;;;;;;634951;216;931117;-66
2021/01/04 08:44:38;;;;;;;304.23;140.83;;;;;;;;;;636399;219;919025;-68
2021/01/04 08:47:08;;;;;;;257.47;125.60;;;;;;;;;;640752;219;918317;-68
2021/01/04 08:49:39;;;;;;;250.87;118.53;;;;;;;;;;645817;216;918778;-68
2021/01/04 08:52:05;;;;;;;249.90;120.07;;;;;;;;;;639188;217;919402;-68
2021/01/04 08:54:31;;;;;;;250.13;121.30;;;;;;;;;;637996;216;919315;-68
2021/01/04 08:57:03;;;;;;;252.03;117.87;;;;;;;;;;643463;217;918521;-67
2021/01/04 08:59:32;;;;;;;241.87;117.97;;;;;;;;;;642460;216;919022;-67
2021/01/04 09:01:55;;;;;;;270.70;124.00;;;;;;;;;;639355;217;918603;-68
2021/01/04 09:04:23;;;;;;;253.45;124.80;;;;;;;;;;636523;216;917494;-67
2021/01/04 09:06:49;;;;;;;287.80;137.67;;;;;;;;;;644628;217;919696;-66
2021/01/04 09:09:15;;;;;;;292.40;135.83;;;;;;;;;;638557;216;917568;-68
2021/01/04 09:11:41;;;;;;;318.87;141.03;;;;;;;;;;639474;217;928073;-67
2021/01/04 09:14:20;;;;;;;344.33;156.07;;;;;;;;;;641109;217;941486;-67
2021/01/04 09:16:46;;;;;;;273.97;130.67;;;;;;;;;;645861;215;920437;-67
2021/01/04 09:19:18;;;;;;;284.30;131.73;;;;;;;;;;638364;216;916361;-67
2021/01/04 09:21:45;;;;;;;253.87;127.30;;;;;;;;;;640936;216;915849;-67
2021/01/04 09:24:15;;;;;;;301.40;151.50;;;;;;;;;;637248;217;918760;-66
2021/01/04 09:26:41;;;;;;;301.13;151.23;;;;;;;;;;645037;217;917970;-67
2021/01/04 09:29:17;;;;;;;331.97;151.87;;;;;;;;;;642128;217;644256;-67
2021/01/04 09:31:43;;;;;;;319.07;150.13;;;;;;;;;;645241;217;633819;-66
2021/01/04 09:34:09;;;;;;;357.03;180.83;;;;;;;;;;641184;216;624195;-67
2021/01/04 09:36:35;;;;;;;318.07;158.30;;;;;;;;;;648557;217;628378;-67
2021/01/04 09:39:02;;;;;;;289.97;145.83;;;;;;;;;;639637;216;919066;-66
2021/01/04 09:41:28;;;;;;;297.60;143.97;;;;;;;;;;639646;216;918753;-67
2021/01/04 09:43:54;;;;;;;288.83;143.73;;;;;;;;;;645225;217;918924;-67
2021/01/04 09:46:24;;;;;;;329.20;163.83;;;;;;;;;;639673;217;919176;-66
2021/01/04 09:49:02;;;;;;;291.80;135.60;;;;;;;;;;638624;217;1004422;-67
2021/01/04 09:51:46;;;;;;;261.17;135.20;;;;;;;;;;637732;217;919292;-66
2021/01/04 09:54:12;;;;;;;244.00;120.47;;;;;;;;;;640299;217;918886;-68
2021/01/04 09:56:38;;;;;;;317.33;148.67;;;;;;;;;;638429;216;928337;-67
2021/01/04 09:59:10;;;;;;;250.43;114.63;;;;;;;;;;644220;217;918563;-67
2021/01/04 10:01:40;;;;;;;250.70;121.77;;;;;;;;;;637077;217;918191;-67
2021/01/04 10:04:06;;;;;;;292.70;141.00;;;;;;;;;;639083;216;919445;-67
2021/01/04 10:06:32;;;;;;;275.67;129.10;;;;;;;;;;641052;217;638338;-66
2021/01/04 10:08:58;;;;;;;246.43;120.97;;;;;;;;;;645094;216;918636;-67
2021/01/04 10:11:24;;;;;;;251.90;126.30;;;;;;;;;;638322;217;919224;-65
2021/01/04 10:13:50;;;;;;;264.93;126.60;;;;;;;;;;639618;216;919080;-67
2021/01/04 10:16:15;;;;;;;296.87;149.43;;;;;;;;;;641555;216;1101686;-67
2021/01/04 10:18:42;;;;;;;250.67;130.90;;;;;;;;;;639263;217;918735;-67
2021/01/04 10:21:08;;;;;;;265.23;128.63;;;;;;;;;;636908;217;918317;-66
2021/01/04 10:23:35;;;;;;;245.37;119.47;;;;;;;;;;643351;217;918690;-69
2021/01/04 10:26:00;;;;;;;258.77;134.23;;;;;;;;;;636383;216;918264;-67
2021/01/04 10:28:29;;;;;;;229.67;112.13;;;;;;;;;;636923;215;1023677;-66
2021/01/04 10:31:00;;;;;;;255.17;121.07;;;;;;;;;;638796;217;918293;-66
2021/01/04 10:33:26;;;;;;;259.80;126.83;;;;;;;;;;641873;217;920042;-67
2021/01/04 10:35:57;;;;;;;229.30;118.87;;;;;;;;;;640619;217;933056;-66
2021/01/04 10:38:23;;;;;;;231.00;116.83;;;;;;;;;;638310;217;917748;-66
2021/01/04 10:40:49;;;;;;;219.97;109.50;;;;;;;;;;641635;216;912478;-66
2021/01/04 10:43:16;;;;;;;199.93;96.30;;;;;;;;;;643364;217;918738;-67
2021/01/04 10:45:42;;;;;;;195.30;96.40;;;;;;;;;;640460;217;919221;-68
2021/01/04 10:48:10;;;;;;;222.33;111.63;;;;;;;;;;637847;217;921768;-66
2021/01/04 10:50:37;;;;;;;221.20;112.30;;;;;;;;;;644348;217;919261;-65
2021/01/04 10:53:03;;;;;;;209.20;106.67;;;;;;;;;;637116;217;919300;-66
2021/01/04 10:55:29;;;;;;;226.77;105.93;;;;;;;;;;640506;217;900587;-67
2021/01/04 10:57:54;;;;;;;235.93;110.87;;;;;;;;;;641083;217;918875;-66
2021/01/04 11:00:20;;;;;;;222.83;114.13;;;;;;;;;;644342;216;918399;-66
2021/01/04 11:02:46;;;;;;;232.50;113.73;;;;;;;;;;640265;216;649666;-66
2021/01/04 11:05:12;;;;;;;229.87;111.10;;;;;;;;;;640562;217;918885;-65
2021/01/04 11:07:39;;;;;;;224.03;108.20;;;;;;;;;;644408;217;624296;-68
2021/01/04 11:10:23;;;;;;;224.97;111.90;;;;;;;;;;642750;215;626253;-67
2021/01/04 11:12:49;;;;;;;216.20;104.97;;;;;;;;;;639233;215;630930;-67
2021/01/04 11:15:20;;;;;;;209.82;99.28;;;;;;;;;;641610;216;834565;-66
2021/01/04 11:17:46;;;;;;;217.10;104.97;;;;;;;;;;638249;217;921735;-67
2021/01/04 11:20:15;;;;;;;201.40;99.70;;;;;;;;;;642299;216;918815;-66
2021/01/04 11:22:40;;;;;;;224.07;107.17;;;;;;;;;;639818;217;919193;-66
2021/01/04 11:25:05;;;;;;;210.60;100.37;;;;;;;;;;636142;216;1096694;-66
2021/01/04 11:27:31;;;;;;;192.80;104.10;;;;;;;;;;641874;216;919309;-66
2021/01/04 11:29:56;;;;;;;212.20;107.17;;;;;;;;;;639219;216;920408;-66
2021/01/04 11:32:22;;;;;;;207.47;100.47;;;;;;;;;;640330;216;918882;-66
2021/01/04 11:34:50;;;;;;;227.67;97.80;;;;;;;;;;640495;219;918659;-66
2021/01/04 11:37:16;;;;;;;217.43;105.47;;;;;;;;;;639189;216;919402;-66
2021/01/04 11:39:42;;;;;;;206.67;106.20;;;;;;;;;;638241;217;918981;-66
2021/01/04 11:42:08;;;;;;;236.33;121.20;;;;;;;;;;640294;217;919258;-66
2021/01/04 11:44:34;;;;;;;240.60;120.17;;;;;;;;;;643051;216;918428;-67
2021/01/04 11:47:00;;;;;;;249.50;124.07;;;;;;;;;;641126;217;919184;-66
2021/01/04 11:49:25;;;;;;;280.10;131.63;;;;;;;;;;638252;217;919102;-66
2021/01/04 11:51:51;;;;;;;336.13;188.27;;;;;;;;;;645634;215;921237;-67
2021/01/04 11:54:18;;;;;;;329.83;176.47;;;;;;;;;;641240;216;919518;-67
2021/01/04 11:56:43;;;;;;;279.80;143.30;;;;;;;;;;638804;216;918649;-67
2021/01/04 11:59:09;;;;;;;285.97;143.10;;;;;;;;;;644323;217;914299;-66
2021/01/04 12:01:35;;;;;;;252.13;128.27;;;;;;;;;;636466;216;919192;-67
2021/01/04 12:04:01;;;;;;;272.00;145.00;;;;;;;;;;639007;216;918228;-68
2021/01/04 12:06:27;;;;;;;301.08;158.48;;;;;;;;;;638387;217;918655;-66
2021/01/04 12:08:53;;;;;;;274.77;142.33;;;;;;;;;;644723;217;921493;-66
2021/01/04 12:11:21;;;;;;;325.97;159.87;;;;;;;;;;637413;216;919266;-67
2021/01/04 12:13:45;;;;;;;421.03;218.63;;;;;;;;;;639613;216;918827;-66
2021/01/04 12:16:10;;;;;;;294.30;140.80;;;;;;;;;;643512;216;848490;-69
2021/01/04 12:18:36;;;;;;;282.50;143.00;;;;;;;;;;638185;217;921171;-66
2021/01/04 12:21:02;;;;;;;246.02;129.52;;;;;;;;;;636133;217;918708;-66
2021/01/04 12:23:28;;;;;;;265.83;128.27;;;;;;;;;;643705;217;919360;-67
2021/01/04 12:25:54;;;;;;;255.07;127.53;;;;;;;;;;639385;217;918986;-66
2021/01/04 12:28:20;;;;;;;270.12;133.73;;;;;;;;;;641111;217;1043454;-67
2021/01/04 12:30:46;;;;;;;264.77;126.27;;;;;;;;;;639694;217;920444;-67
2021/01/04 12:33:12;;;;;;;249.57;125.47;;;;;;;;;;639521;217;918685;-67
2021/01/04 12:35:38;;;;;;;271.40;142.00;;;;;;;;;;639075;217;926603;-67
2021/01/04 12:38:04;;;;;;;273.40;140.93;;;;;;;;;;637031;217;919056;-66
2021/01/04 12:40:30;;;;;;;302.90;150.10;;;;;;;;;;643334;216;926160;-66
2021/01/04 12:42:57;;;;;;;371.03;191.63;;;;;;;;;;638050;216;918525;-66
2021/01/04 12:45:21;;;;;;;315.83;165.20;;;;;;;;;;638438;216;960747;-67
2021/01/04 12:47:47;;;;;;;271.85;139.30;;;;;;;;;;642560;216;914247;-67
2021/01/04 12:50:13;;;;;;;325.53;172.33;;;;;;;;;;641798;217;918878;-67
2021/01/04 12:52:39;;;;;;;334.25;176.25;;;;;;;;;;630055;217;2934143;-67
2021/01/04 12:55:06;;;;;;;291.57;150.17;;;;;;;;;;644509;217;918408;-67
2021/01/04 12:57:31;;;;;;;267.73;136.87;;;;;;;;;;638641;217;918270;-67
2021/01/04 12:59:58;;;;;;;234.23;116.10;;;;;;;;;;637722;217;1020722;-67
2021/01/04 13:02:23;;;;;;;284.83;132.87;;;;;;;;;;637761;215;920327;-65
2021/01/04 13:04:49;;;;;;;259.73;131.07;;;;;;;;;;646782;217;914605;-67
2021/01/04 13:07:15;;;;;;;276.83;139.20;;;;;;;;;;638717;216;917468;-69
2021/01/04 13:09:41;;;;;;;255.07;129.90;;;;;;;;;;638836;217;918316;-66
2021/01/04 13:12:07;;;;;;;259.90;126.20;;;;;;;;;;644752;217;923483;-67
2021/01/04 13:14:33;;;;;;;246.73;119.10;;;;;;;;;;640803;216;920677;-67
2021/01/04 13:16:59;;;;;;;314.35;145.00;;;;;;;;;;641059;217;915873;-67
2021/01/04 13:19:30;;;;;;;258.07;123.07;;;;;;;;;;643126;216;912073;-67
2021/01/04 13:21:55;;;;;;;275.53;130.03;;;;;;;;;;639889;217;918833;-66
2021/01/04 13:24:21;;;;;;;268.03;133.07;;;;;;;;;;637235;217;914228;-66
2021/01/04 13:26:47;;;;;;;290.47;129.63;;;;;;;;;;639246;217;918825;-66
2021/01/04 13:29:13;;;;;;;262.77;138.13;;;;;;;;;;642925;215;918781;-67
2021/01/04 13:31:39;;;;;;;257.80;133.90;;;;;;;;;;638867;217;918729;-66
2021/01/04 13:34:05;;;;;;;400.37;198.10;;;;;;;;;;637394;217;939310;-66
2021/01/04 13:36:31;;;;;;;321.70;171.20;;;;;;;;;;644969;216;918757;-66
2021/01/04 13:38:57;;;;;;;301.13;146.80;;;;;;;;;;638796;216;916774;-68
2021/01/04 13:41:22;;;;;;;263.07;126.30;;;;;;;;;;638858;217;1015238;-66
2021/01/04 13:43:48;;;;;;;240.97;120.23;;;;;;;;;;641383;217;918701;-67
2021/01/04 13:46:18;;;;;;;227.70;112.77;;;;;;;;;;640427;217;938561;-66
2021/01/04 13:48:45;;;;;;;228.67;111.77;;;;;;;;;;638819;217;919526;-68
2021/01/04 13:51:11;;;;;;;260.77;116.30;;;;;;;;;;637363;216;914606;-66
2021/01/04 13:53:37;;;;;;;215.80;103.03;;;;;;;;;;643819;216;921156;-68